Time;durP1;ratioP1;P1;durP2;ratioP2;P2;SDS_P1;SDS_P2;PMS_P1;PMS_P2;Temp;Humidity;BMP_temperature;BMP_pressure;BME280_temperature;BME280_humidity;BME280_pressure;Samples;Min_cycle;Max_cycle;Signal;HPM_P1;HPM_P2
2023/09/26 00:01:37;;;;;;;9.32;5.22;;;;;;;;;;5012028;28;20057;-55
2023/09/26 00:04:03;;;;;;;8.90;4.90;;;;;;;;;;5012003;28;20045;-54
2023/09/26 00:06:30;;;;;;;9.88;5.28;;;;;;;;;;5013746;28;20063;-58
2023/09/26 00:08:56;;;;;;;9.85;4.97;;;;;;;;;;5020189;28;20473;-54
2023/09/26 00:11:22;;;;;;;10.38;5.30;;;;;;;;;;5007634;28;20094;-55
2023/09/26 00:13:49;;;;;;;10.18;5.00;;;;;;;;;;5010325;28;20095;-55
2023/09/26 00:16:15;;;;;;;9.93;5.18;;;;;;;;;;5016472;28;20473;-53
2023/09/26 00:18:42;;;;;;;6.85;4.93;;;;;;;;;;5025701;28;20074;-56
2023/09/26 00:21:10;;;;;;;7.97;4.75;;;;;;;;;;5007589;28;20504;-56
2023/09/26 00:23:36;;;;;;;8.57;5.28;;;;;;;;;;5004624;28;20095;-54
2023/09/26 00:26:06;;;;;;;7.38;4.78;;;;;;;;;;4990708;28;20781;-53
2023/09/26 00:28:32;;;;;;;8.95;4.57;;;;;;;;;;4993959;28;20836;-55
2023/09/26 00:31:03;;;;;;;11.82;4.95;;;;;;;;;;4998787;28;20053;-54
2023/09/26 00:33:29;;;;;;;8.77;4.90;;;;;;;;;;5006357;28;20094;-55
2023/09/26 00:35:55;;;;;;;9.48;5.10;;;;;;;;;;5006101;28;20052;-55
2023/09/26 00:38:22;;;;;;;8.23;4.65;;;;;;;;;;5012227;28;21927;-55
2023/09/26 00:40:48;;;;;;;7.80;5.20;;;;;;;;;;4996168;28;20053;-53
2023/09/26 00:43:21;;;;;;;7.55;4.80;;;;;;;;;;5006560;28;20135;-52
2023/09/26 00:45:51;;;;;;;8.02;5.03;;;;;;;;;;5011545;28;20120;-54
2023/09/26 00:48:17;;;;;;;9.23;4.72;;;;;;;;;;5014591;28;20034;-55
2023/09/26 00:50:45;;;;;;;9.27;4.70;;;;;;;;;;5016613;28;20048;-54
2023/09/26 00:53:11;;;;;;;8.30;4.93;;;;;;;;;;5009153;28;20096;-53
2023/09/26 00:55:38;;;;;;;11.50;5.07;;;;;;;;;;5010695;28;20030;-51
2023/09/26 00:58:04;;;;;;;9.02;4.88;;;;;;;;;;5008822;28;20043;-54
2023/09/26 01:00:31;;;;;;;9.23;4.60;;;;;;;;;;5015144;28;20095;-54
2023/09/26 01:02:57;;;;;;;9.45;4.88;;;;;;;;;;5020248;28;20116;-55
2023/09/26 01:05:24;;;;;;;8.35;5.18;;;;;;;;;;5013394;28;20810;-54
2023/09/26 01:07:50;;;;;;;9.50;5.47;;;;;;;;;;5013676;28;20047;-53
2023/09/26 01:10:16;;;;;;;9.77;5.55;;;;;;;;;;5013124;28;20102;-60
2023/09/26 01:12:42;;;;;;;7.13;4.50;;;;;;;;;;5014014;28;20404;-54
2023/09/26 01:15:08;;;;;;;9.43;5.22;;;;;;;;;;5017067;28;20042;-54
2023/09/26 01:17:34;;;;;;;9.52;5.10;;;;;;;;;;5012888;28;20036;-55
2023/09/26 01:20:01;;;;;;;9.25;5.53;;;;;;;;;;5015161;28;20037;-55
2023/09/26 01:22:27;;;;;;;9.63;5.07;;;;;;;;;;5008481;28;20452;-55
2023/09/26 01:24:53;;;;;;;8.38;5.30;;;;;;;;;;4994222;28;20043;-54
2023/09/26 01:27:20;;;;;;;8.50;5.05;;;;;;;;;;5014920;28;20905;-54
2023/09/26 01:29:50;;;;;;;9.32;5.85;;;;;;;;;;5014253;28;20080;-54
2023/09/26 01:32:16;;;;;;;9.18;5.63;;;;;;;;;;5012554;28;20322;-54
2023/09/26 01:34:42;;;;;;;8.65;5.30;;;;;;;;;;5014765;28;20706;-55
2023/09/26 01:37:08;;;;;;;8.38;5.22;;;;;;;;;;5016854;28;20041;-56
2023/09/26 01:39:34;;;;;;;9.90;5.70;;;;;;;;;;5021371;28;20044;-55
2023/09/26 01:42:00;;;;;;;10.23;5.70;;;;;;;;;;5013334;28;20044;-55
2023/09/26 01:44:26;;;;;;;11.68;5.97;;;;;;;;;;5014162;28;20602;-55
2023/09/26 01:46:52;;;;;;;7.45;5.47;;;;;;;;;;5028244;28;20132;-54
2023/09/26 01:49:21;;;;;;;12.68;5.90;;;;;;;;;;5019657;28;20461;-55
2023/09/26 01:51:47;;;;;;;12.88;5.68;;;;;;;;;;5017141;28;20699;-54
2023/09/26 01:54:13;;;;;;;14.57;6.22;;;;;;;;;;5011611;28;20042;-54
2023/09/26 01:56:39;;;;;;;10.30;5.20;;;;;;;;;;5014580;28;20463;-54
2023/09/26 01:59:05;;;;;;;10.35;5.97;;;;;;;;;;5014730;28;20175;-52
2023/09/26 02:01:30;;;;;;;12.25;5.90;;;;;;;;;;5018388;28;20573;-53
2023/09/26 02:03:56;;;;;;;12.05;6.45;;;;;;;;;;5013747;28;20054;-54
2023/09/26 02:06:23;;;;;;;8.50;5.93;;;;;;;;;;5013130;28;20949;-55
2023/09/26 02:08:48;;;;;;;8.73;5.60;;;;;;;;;;5014816;28;20823;-55
2023/09/26 02:11:14;;;;;;;10.85;6.15;;;;;;;;;;5013394;28;20095;-56
2023/09/26 02:13:40;;;;;;;12.88;5.95;;;;;;;;;;5012264;28;20386;-55
2023/09/26 02:16:10;;;;;;;15.07;6.32;;;;;;;;;;5016121;28;20033;-54
2023/09/26 02:18:36;;;;;;;11.68;6.82;;;;;;;;;;5019126;28;20409;-55
2023/09/26 02:21:02;;;;;;;10.70;6.82;;;;;;;;;;5018346;28;20037;-53
2023/09/26 02:23:28;;;;;;;15.07;7.00;;;;;;;;;;5019125;28;20037;-51
2023/09/26 02:25:54;;;;;;;11.35;6.60;;;;;;;;;;5012828;28;20048;-54
2023/09/26 02:28:20;;;;;;;13.07;6.75;;;;;;;;;;5010514;28;20215;-52
2023/09/26 02:30:46;;;;;;;12.13;6.80;;;;;;;;;;5013911;28;20045;-53
2023/09/26 02:33:12;;;;;;;12.68;6.95;;;;;;;;;;5012225;28;20037;-54
2023/09/26 02:35:39;;;;;;;13.95;6.95;;;;;;;;;;5013903;28;20037;-52
2023/09/26 02:38:05;;;;;;;11.27;6.85;;;;;;;;;;5014056;28;20631;-55
2023/09/26 02:40:31;;;;;;;12.10;7.20;;;;;;;;;;5016527;28;20033;-53
2023/09/26 02:42:57;;;;;;;11.07;7.47;;;;;;;;;;5014010;28;20202;-54
2023/09/26 02:45:23;;;;;;;14.50;7.60;;;;;;;;;;5020516;28;20041;-53
2023/09/26 02:47:49;;;;;;;16.25;7.10;;;;;;;;;;5004391;28;20045;-55
2023/09/26 02:50:15;;;;;;;12.65;7.40;;;;;;;;;;5019412;28;20045;-55
2023/09/26 02:52:42;;;;;;;14.18;7.43;;;;;;;;;;5016277;28;20156;-53
2023/09/26 02:55:08;;;;;;;12.68;7.35;;;;;;;;;;5012412;28;20819;-57
2023/09/26 02:57:35;;;;;;;13.60;7.47;;;;;;;;;;5009229;28;20038;-54
2023/09/26 03:00:08;;;;;;;10.73;7.15;;;;;;;;;;5014785;28;20048;-52
2023/09/26 03:02:35;;;;;;;11.18;7.47;;;;;;;;;;5013822;28;20041;-52
2023/09/26 03:05:00;;;;;;;12.38;7.53;;;;;;;;;;5012418;28;20420;-52
2023/09/26 03:07:26;;;;;;;12.68;7.18;;;;;;;;;;5003130;28;20045;-54
2023/09/26 03:09:52;;;;;;;13.95;7.80;;;;;;;;;;5010904;28;20136;-52
2023/09/26 03:12:18;;;;;;;16.30;7.55;;;;;;;;;;5014072;28;20041;-54
2023/09/26 03:14:44;;;;;;;13.70;7.72;;;;;;;;;;5016524;28;20045;-52
2023/09/26 03:17:10;;;;;;;13.30;7.60;;;;;;;;;;5018183;28;20481;-52
2023/09/26 03:19:36;;;;;;;13.77;7.90;;;;;;;;;;5012722;28;20622;-53
2023/09/26 03:22:03;;;;;;;17.23;8.45;;;;;;;;;;4991411;28;20140;-52
2023/09/26 03:24:29;;;;;;;14.20;8.27;;;;;;;;;;4997011;28;20038;-54
2023/09/26 03:26:55;;;;;;;14.43;7.90;;;;;;;;;;4992525;28;20327;-53
2023/09/26 03:29:21;;;;;;;15.75;7.68;;;;;;;;;;4993141;28;20065;-52
2023/09/26 03:31:48;;;;;;;13.48;8.15;;;;;;;;;;4991006;28;20136;-55
2023/09/26 03:34:14;;;;;;;14.85;7.82;;;;;;;;;;4999124;28;20057;-55
2023/09/26 03:36:40;;;;;;;16.35;8.50;;;;;;;;;;4996314;28;20116;-53
2023/09/26 03:39:06;;;;;;;15.75;8.50;;;;;;;;;;4991849;28;20087;-52
2023/09/26 03:41:32;;;;;;;15.18;8.18;;;;;;;;;;4993722;28;20371;-52
2023/09/26 03:44:01;;;;;;;14.50;7.82;;;;;;;;;;4998229;28;20034;-55
2023/09/26 03:46:27;;;;;;;21.80;9.20;;;;;;;;;;4991346;28;20045;-53
2023/09/26 03:48:53;;;;;;;16.80;8.27;;;;;;;;;;4997638;28;20697;-53
2023/09/26 03:51:19;;;;;;;17.42;9.02;;;;;;;;;;4990888;28;20104;-51
2023/09/26 03:53:45;;;;;;;15.32;7.95;;;;;;;;;;4994226;28;20045;-52
2023/09/26 03:56:11;;;;;;;15.63;8.02;;;;;;;;;;4990784;28;20088;-53
2023/09/26 03:58:37;;;;;;;14.30;7.50;;;;;;;;;;4998352;28;20062;-54
2023/09/26 04:01:14;;;;;;;15.38;8.75;;;;;;;;;;5000758;28;20560;-54
2023/09/26 04:03:41;;;;;;;14.20;8.13;;;;;;;;;;4999626;28;20411;-54
2023/09/26 04:06:07;;;;;;;12.95;7.90;;;;;;;;;;4996762;28;20040;-53
2023/09/26 04:08:33;;;;;;;14.35;8.68;;;;;;;;;;4991874;28;20038;-52
2023/09/26 04:10:59;;;;;;;18.60;8.80;;;;;;;;;;4996105;28;20529;-53
2023/09/26 04:13:25;;;;;;;13.65;8.93;;;;;;;;;;4991256;28;20029;-54
2023/09/26 04:15:52;;;;;;;17.35;9.48;;;;;;;;;;4994914;28;20706;-49
2023/09/26 04:18:18;;;;;;;20.52;9.40;;;;;;;;;;4995287;28;20793;-52
2023/09/26 04:20:45;;;;;;;15.80;9.77;;;;;;;;;;4994203;28;20041;-50
2023/09/26 04:23:11;;;;;;;15.88;9.20;;;;;;;;;;4991306;28;20410;-51
2023/09/26 04:25:37;;;;;;;18.38;10.00;;;;;;;;;;4991134;28;20129;-49
2023/09/26 04:28:03;;;;;;;18.77;10.75;;;;;;;;;;4989258;28;20034;-51
2023/09/26 04:30:30;;;;;;;17.13;9.68;;;;;;;;;;4995154;28;21034;-54
2023/09/26 04:32:56;;;;;;;16.38;9.95;;;;;;;;;;4996346;28;20052;-53
2023/09/26 04:35:22;;;;;;;18.70;10.25;;;;;;;;;;5000205;28;20042;-53
2023/09/26 04:37:48;;;;;;;19.10;10.30;;;;;;;;;;5008878;28;20080;-51
2023/09/26 04:40:14;;;;;;;16.40;9.30;;;;;;;;;;5005682;28;20034;-52
2023/09/26 04:42:48;;;;;;;15.60;9.52;;;;;;;;;;4999034;28;20968;-50
2023/09/26 04:45:14;;;;;;;19.27;10.35;;;;;;;;;;4998863;28;20141;-53
2023/09/26 04:47:40;;;;;;;17.67;9.68;;;;;;;;;;5002770;28;20044;-51
2023/09/26 04:50:06;;;;;;;17.27;10.02;;;;;;;;;;4994589;28;20069;-54
2023/09/26 04:52:32;;;;;;;18.13;10.13;;;;;;;;;;4996676;28;20069;-52
2023/09/26 04:54:58;;;;;;;15.60;9.85;;;;;;;;;;4993956;28;20076;-55
2023/09/26 04:57:24;;;;;;;17.33;9.43;;;;;;;;;;4993958;28;20042;-55
2023/09/26 04:59:50;;;;;;;14.32;9.18;;;;;;;;;;4994412;28;20524;-51
2023/09/26 05:02:16;;;;;;;17.35;9.27;;;;;;;;;;4986215;28;20042;-51
2023/09/26 05:04:45;;;;;;;15.85;8.77;;;;;;;;;;4997218;28;21118;-55
2023/09/26 05:07:11;;;;;;;16.20;9.70;;;;;;;;;;5019545;28;20034;-54
2023/09/26 05:09:40;;;;;;;21.95;13.20;;;;;;;;;;5023099;28;20060;-55
2023/09/26 05:12:06;;;;;;;22.25;12.55;;;;;;;;;;5019157;28;20069;-54
2023/09/26 05:14:32;;;;;;;25.67;14.77;;;;;;;;;;5024955;28;20042;-55
2023/09/26 05:16:58;;;;;;;28.20;18.75;;;;;;;;;;5026717;28;20470;-56
2023/09/26 05:19:24;;;;;;;19.23;12.52;;;;;;;;;;5022652;28;20152;-54
2023/09/26 05:21:51;;;;;;;17.38;10.75;;;;;;;;;;4998705;28;20038;-54
2023/09/26 05:24:17;;;;;;;17.58;10.35;;;;;;;;;;5015993;28;20124;-55
2023/09/26 05:26:43;;;;;;;19.33;10.23;;;;;;;;;;5025481;28;20060;-56
2023/09/26 05:29:10;;;;;;;18.20;10.05;;;;;;;;;;5024134;28;20040;-55
2023/09/26 05:31:36;;;;;;;19.63;10.23;;;;;;;;;;5027060;28;20038;-52
2023/09/26 05:34:03;;;;;;;18.40;10.20;;;;;;;;;;5022071;28;20125;-55
2023/09/26 05:36:29;;;;;;;17.77;10.63;;;;;;;;;;5030791;28;20030;-53
2023/09/26 05:38:55;;;;;;;18.70;10.75;;;;;;;;;;5025468;28;20041;-55
2023/09/26 05:41:21;;;;;;;18.90;10.60;;;;;;;;;;5024687;28;20037;-54
2023/09/26 05:43:47;;;;;;;14.80;9.68;;;;;;;;;;5016285;28;20037;-55
2023/09/26 05:46:13;;;;;;;17.45;10.23;;;;;;;;;;5030519;28;20108;-56
2023/09/26 05:48:40;;;;;;;15.18;10.15;;;;;;;;;;5029077;28;20045;-54
2023/09/26 05:51:06;;;;;;;17.48;10.77;;;;;;;;;;5022578;28;20646;-53
2023/09/26 05:53:32;;;;;;;19.95;11.18;;;;;;;;;;5012505;28;20529;-53
2023/09/26 05:55:58;;;;;;;18.33;11.20;;;;;;;;;;5006999;28;20036;-56
2023/09/26 05:58:24;;;;;;;14.70;10.32;;;;;;;;;;5021296;28;20060;-55
2023/09/26 06:00:51;;;;;;;17.75;10.43;;;;;;;;;;5032803;28;20511;-55
2023/09/26 06:03:17;;;;;;;13.60;9.98;;;;;;;;;;5012284;28;20125;-55
2023/09/26 06:05:44;;;;;;;15.18;10.27;;;;;;;;;;5029799;28;20028;-56
2023/09/26 06:08:10;;;;;;;18.33;10.63;;;;;;;;;;5024735;28;20076;-55
2023/09/26 06:10:36;;;;;;;17.73;11.02;;;;;;;;;;5033216;28;20041;-54
2023/09/26 06:13:02;;;;;;;21.70;11.93;;;;;;;;;;5029174;28;20489;-52
2023/09/26 06:15:28;;;;;;;23.98;11.02;;;;;;;;;;5003080;28;20358;-55
2023/09/26 06:18:00;;;;;;;23.48;11.95;;;;;;;;;;4993863;28;20041;-54
2023/09/26 06:20:30;;;;;;;28.33;11.90;;;;;;;;;;5007538;28;20328;-54
2023/09/26 06:22:56;;;;;;;27.98;13.38;;;;;;;;;;5027751;28;20524;-55
2023/09/26 06:25:22;;;;;;;19.77;12.60;;;;;;;;;;5030459;28;20112;-55
2023/09/26 06:27:49;;;;;;;21.67;13.35;;;;;;;;;;5027376;28;20040;-55
2023/09/26 06:30:15;;;;;;;22.08;13.55;;;;;;;;;;5018354;28;20045;-55
2023/09/26 06:32:41;;;;;;;21.75;13.43;;;;;;;;;;5012092;28;21270;-55
2023/09/26 06:35:07;;;;;;;29.02;14.45;;;;;;;;;;5010813;28;20689;-56
2023/09/26 06:37:33;;;;;;;21.08;13.98;;;;;;;;;;5019446;28;20041;-55
2023/09/26 06:40:04;;;;;;;26.48;14.10;;;;;;;;;;5031369;28;20709;-54
2023/09/26 06:42:30;;;;;;;25.38;13.95;;;;;;;;;;5029296;28;20040;-52
2023/09/26 06:44:57;;;;;;;24.70;14.07;;;;;;;;;;5028227;28;20057;-54
2023/09/26 06:47:24;;;;;;;33.58;17.10;;;;;;;;;;5023428;28;20087;-55
2023/09/26 06:49:50;;;;;;;24.30;15.52;;;;;;;;;;5024449;28;20041;-55
2023/09/26 06:52:16;;;;;;;17.48;12.55;;;;;;;;;;5011750;28;20680;-54
2023/09/26 06:54:42;;;;;;;25.90;15.20;;;;;;;;;;4998428;28;20066;-53
2023/09/26 06:57:09;;;;;;;24.73;15.38;;;;;;;;;;4989760;28;20041;-52
2023/09/26 06:59:36;;;;;;;31.73;16.05;;;;;;;;;;4986159;28;20089;-53
2023/09/26 07:02:02;;;;;;;35.13;17.38;;;;;;;;;;4993753;28;20798;-52
2023/09/26 07:04:28;;;;;;;25.35;14.85;;;;;;;;;;4991753;28;20634;-51
2023/09/26 07:06:54;;;;;;;29.38;14.70;;;;;;;;;;4996479;28;20053;-51
2023/09/26 07:09:20;;;;;;;30.27;14.88;;;;;;;;;;4991808;28;20038;-56
2023/09/26 07:11:50;;;;;;;22.73;14.10;;;;;;;;;;4992148;28;20604;-52
2023/09/26 07:14:16;;;;;;;23.00;13.20;;;;;;;;;;4991235;28;20053;-50
2023/09/26 07:16:43;;;;;;;21.90;13.70;;;;;;;;;;4993589;28;20037;-52
2023/09/26 07:19:09;;;;;;;27.67;12.82;;;;;;;;;;4991022;28;20120;-51
2023/09/26 07:21:35;;;;;;;22.30;13.57;;;;;;;;;;4993254;28;20726;-53
2023/09/26 07:24:02;;;;;;;20.58;12.70;;;;;;;;;;4997127;28;20581;-50
2023/09/26 07:26:29;;;;;;;20.85;12.60;;;;;;;;;;4990935;28;20042;-52
2023/09/26 07:28:54;;;;;;;22.25;12.32;;;;;;;;;;4999377;28;20824;-50
2023/09/26 07:31:21;;;;;;;21.35;12.18;;;;;;;;;;4992676;28;20045;-49
2023/09/26 07:33:47;;;;;;;22.13;12.23;;;;;;;;;;4994862;28;20048;-49
2023/09/26 07:36:13;;;;;;;17.70;11.55;;;;;;;;;;4994823;28;20038;-48
2023/09/26 07:38:39;;;;;;;17.88;10.77;;;;;;;;;;5015789;28;20060;-51
2023/09/26 07:41:05;;;;;;;15.57;10.95;;;;;;;;;;4990148;28;20489;-47
2023/09/26 07:43:32;;;;;;;17.45;10.77;;;;;;;;;;4989475;28;20046;-48
2023/09/26 07:46:08;;;;;;;22.63;9.70;;;;;;;;;;4992038;28;20037;-50
2023/09/26 07:48:34;;;;;;;15.63;10.20;;;;;;;;;;4992502;28;20034;-50
2023/09/26 07:51:00;;;;;;;17.33;10.30;;;;;;;;;;4990458;28;20029;-50
2023/09/26 07:53:26;;;;;;;15.73;10.43;;;;;;;;;;5000759;28;20053;-50
2023/09/26 07:55:54;;;;;;;17.02;11.27;;;;;;;;;;5010829;28;20103;-49
2023/09/26 07:58:20;;;;;;;17.77;10.10;;;;;;;;;;5026684;28;20049;-47
2023/09/26 08:00:46;;;;;;;13.75;9.27;;;;;;;;;;5025122;28;20094;-49
2023/09/26 08:03:12;;;;;;;14.98;8.50;;;;;;;;;;5016981;28;20040;-50
2023/09/26 08:05:38;;;;;;;13.00;7.68;;;;;;;;;;5006283;28;20037;-50
2023/09/26 08:08:05;;;;;;;11.77;7.78;;;;;;;;;;4999501;28;20092;-48
2023/09/26 08:10:31;;;;;;;12.00;7.45;;;;;;;;;;5002600;28;20641;-51
2023/09/26 08:12:58;;;;;;;13.73;8.10;;;;;;;;;;4988634;28;20342;-51
2023/09/26 08:15:24;;;;;;;26.20;9.98;;;;;;;;;;5000864;28;20037;-50
2023/09/26 08:17:50;;;;;;;17.23;8.80;;;;;;;;;;4998580;28;20038;-50
2023/09/26 08:20:16;;;;;;;18.13;7.47;;;;;;;;;;5000507;28;20053;-50
2023/09/26 08:22:45;;;;;;;13.05;7.63;;;;;;;;;;5002642;28;20030;-52
2023/09/26 08:25:11;;;;;;;10.65;7.18;;;;;;;;;;4999166;28;20427;-47
2023/09/26 08:27:37;;;;;;;19.35;8.25;;;;;;;;;;5000339;28;20498;-51
2023/09/26 08:30:03;;;;;;;14.35;8.00;;;;;;;;;;4983304;28;20042;-49
2023/09/26 08:32:29;;;;;;;13.95;7.45;;;;;;;;;;5000215;28;20072;-51
2023/09/26 08:34:57;;;;;;;13.40;7.25;;;;;;;;;;5001224;28;20084;-49
2023/09/26 08:37:23;;;;;;;14.52;7.70;;;;;;;;;;5005664;28;20025;-51
2023/09/26 08:39:50;;;;;;;15.95;7.13;;;;;;;;;;5019563;28;20141;-52
2023/09/26 08:42:18;;;;;;;10.98;6.72;;;;;;;;;;5020606;28;20042;-50
2023/09/26 08:44:44;;;;;;;13.15;7.07;;;;;;;;;;5011025;28;20033;-51
2023/09/26 08:47:10;;;;;;;11.88;6.80;;;;;;;;;;5005627;28;20033;-49
2023/09/26 08:49:39;;;;;;;9.98;6.57;;;;;;;;;;5009358;28;20784;-52
2023/09/26 08:52:05;;;;;;;11.52;6.40;;;;;;;;;;5014836;28;20044;-50
2023/09/26 08:54:31;;;;;;;13.52;6.43;;;;;;;;;;5011228;28;20053;-54
2023/09/26 08:56:58;;;;;;;9.90;6.07;;;;;;;;;;5010093;28;20332;-50
2023/09/26 08:59:25;;;;;;;12.02;7.18;;;;;;;;;;5008733;28;20453;-53
2023/09/26 09:01:51;;;;;;;10.13;6.57;;;;;;;;;;5000149;28;20156;-52
2023/09/26 09:04:21;;;;;;;10.00;6.90;;;;;;;;;;4989943;28;20038;-52
2023/09/26 09:06:47;;;;;;;8.70;6.35;;;;;;;;;;4991194;28;20183;-50
2023/09/26 09:09:13;;;;;;;12.07;6.55;;;;;;;;;;4989796;28;20046;-52
2023/09/26 09:11:39;;;;;;;11.02;6.28;;;;;;;;;;4988895;28;20064;-53
2023/09/26 09:14:06;;;;;;;14.40;6.25;;;;;;;;;;4988320;28;20468;-52
2023/09/26 09:16:32;;;;;;;11.13;6.35;;;;;;;;;;4989415;28;20758;-51
2023/09/26 09:18:58;;;;;;;11.55;5.97;;;;;;;;;;4991508;28;20786;-53
2023/09/26 09:21:30;;;;;;;9.48;6.20;;;;;;;;;;4998391;28;20129;-50
2023/09/26 09:23:57;;;;;;;8.95;5.47;;;;;;;;;;4984790;28;20041;-52
2023/09/26 09:26:23;;;;;;;10.50;5.82;;;;;;;;;;4992786;28;20041;-52
2023/09/26 09:28:52;;;;;;;9.38;5.63;;;;;;;;;;4993238;28;20395;-54
2023/09/26 09:31:18;;;;;;;10.52;5.40;;;;;;;;;;4986521;28;20030;-52
2023/09/26 09:33:47;;;;;;;12.15;5.75;;;;;;;;;;5009548;28;20027;-52
2023/09/26 09:36:14;;;;;;;10.18;5.85;;;;;;;;;;5025833;28;20536;-52
2023/09/26 09:38:40;;;;;;;11.35;5.35;;;;;;;;;;5023321;28;20025;-51
2023/09/26 09:41:08;;;;;;;11.63;5.40;;;;;;;;;;5020170;28;20045;-51
2023/09/26 09:43:34;;;;;;;9.02;5.05;;;;;;;;;;5004538;28;20037;-50
2023/09/26 09:46:04;;;;;;;11.43;5.75;;;;;;;;;;5002314;28;20449;-50
2023/09/26 09:48:32;;;;;;;9.70;5.38;;;;;;;;;;4998650;28;20488;-50
2023/09/26 09:51:00;;;;;;;11.23;5.32;;;;;;;;;;5005977;28;20398;-53
2023/09/26 09:53:28;;;;;;;10.82;4.95;;;;;;;;;;5002785;28;20041;-52
2023/09/26 09:55:56;;;;;;;7.07;4.43;;;;;;;;;;5006447;28;20037;-51
2023/09/26 09:58:29;;;;;;;9.95;4.68;;;;;;;;;;5018018;28;20144;-53
2023/09/26 10:00:56;;;;;;;9.93;4.00;;;;;;;;;;4996754;28;20180;-53
2023/09/26 10:03:22;;;;;;;11.18;4.63;;;;;;;;;;4992693;28;20930;-52
2023/09/26 10:05:51;;;;;;;9.80;4.70;;;;;;;;;;5000511;28;20045;-52
2023/09/26 10:08:17;;;;;;;7.55;4.55;;;;;;;;;;4996143;28;20049;-50
2023/09/26 10:10:44;;;;;;;10.98;4.82;;;;;;;;;;4994060;28;20042;-53
2023/09/26 10:13:10;;;;;;;10.43;4.68;;;;;;;;;;4990419;28;20034;-50
2023/09/26 10:15:55;;;;;;;10.60;4.55;;;;;;;;;;4993658;28;20401;-49
2023/09/26 10:18:21;;;;;;;11.38;4.30;;;;;;;;;;4992873;28;22529;-52
2023/09/26 10:20:47;;;;;;;14.05;4.72;;;;;;;;;;5005311;28;20473;-54
2023/09/26 10:23:13;;;;;;;121.50;79.75;;;;;;;;;;4990782;28;20034;-54
2023/09/26 10:25:39;;;;;;;9.02;5.40;;;;;;;;;;4996642;28;20034;-50
2023/09/26 10:28:07;;;;;;;9.43;4.72;;;;;;;;;;5014979;28;20176;-54
2023/09/26 10:30:45;;;;;;;12.20;4.75;;;;;;;;;;5003541;28;20057;-50
2023/09/26 10:33:12;;;;;;;8.15;4.50;;;;;;;;;;5000742;28;20030;-51
2023/09/26 10:35:44;;;;;;;12.05;4.55;;;;;;;;;;5004479;28;20096;-53
2023/09/26 10:38:15;;;;;;;12.70;4.28;;;;;;;;;;4997122;28;20038;-52
2023/09/26 10:40:41;;;;;;;17.35;4.78;;;;;;;;;;4994523;28;20083;-53
2023/09/26 10:43:07;;;;;;;10.00;4.50;;;;;;;;;;4989289;28;20049;-54
2023/09/26 10:45:33;;;;;;;9.82;4.63;;;;;;;;;;4991084;28;20034;-51
2023/09/26 10:48:04;;;;;;;9.48;4.22;;;;;;;;;;4991868;28;20662;-51
2023/09/26 10:50:30;;;;;;;10.77;4.70;;;;;;;;;;5012653;28;20033;-53
2023/09/26 10:52:56;;;;;;;7.90;4.22;;;;;;;;;;5011809;28;20542;-55
2023/09/26 10:55:22;;;;;;;6.93;3.92;;;;;;;;;;4999150;28;20042;-54
2023/09/26 10:57:51;;;;;;;7.57;3.67;;;;;;;;;;4993120;28;20041;-52
2023/09/26 11:00:18;;;;;;;9.63;4.45;;;;;;;;;;4988425;28;20099;-53
2023/09/26 11:02:46;;;;;;;11.80;4.22;;;;;;;;;;4992200;28;20881;-54
2023/09/26 11:05:13;;;;;;;7.18;3.95;;;;;;;;;;4993515;28;20034;-54
2023/09/26 11:07:40;;;;;;;6.75;4.05;;;;;;;;;;4985693;28;20037;-53
2023/09/26 11:10:06;;;;;;;10.93;4.03;;;;;;;;;;5003693;28;20060;-55
2023/09/26 11:12:33;;;;;;;9.43;4.18;;;;;;;;;;5002136;28;20041;-53
2023/09/26 11:14:59;;;;;;;8.20;3.72;;;;;;;;;;5003535;28;20489;-54
2023/09/26 11:17:29;;;;;;;8.63;3.97;;;;;;;;;;5013697;28;20037;-54
2023/09/26 11:19:59;;;;;;;9.02;3.70;;;;;;;;;;5012866;28;20037;-53
2023/09/26 11:22:25;;;;;;;10.88;4.18;;;;;;;;;;4997038;28;20046;-55
2023/09/26 11:25:11;;;;;;;8.00;4.38;;;;;;;;;;4988302;28;20029;-54
2023/09/26 11:27:42;;;;;;;7.22;3.47;;;;;;;;;;5001148;28;20049;-54
2023/09/26 11:30:10;;;;;;;8.18;3.40;;;;;;;;;;5009678;28;20536;-55
2023/09/26 11:32:36;;;;;;;7.32;3.67;;;;;;;;;;5012503;28;20133;-54
2023/09/26 11:35:03;;;;;;;6.07;3.35;;;;;;;;;;5007770;28;20120;-53
2023/09/26 11:37:32;;;;;;;113.57;88.63;;;;;;;;;;5007235;28;20036;-55
2023/09/26 11:39:59;;;;;;;8.98;3.67;;;;;;;;;;5020493;28;20117;-55
2023/09/26 11:42:25;;;;;;;5.82;2.63;;;;;;;;;;5022630;28;20037;-54
2023/09/26 11:44:51;;;;;;;4.35;3.00;;;;;;;;;;5024459;28;20451;-54
2023/09/26 11:47:17;;;;;;;8.43;2.70;;;;;;;;;;5019122;28;20038;-52
2023/09/26 11:49:43;;;;;;;5.82;2.80;;;;;;;;;;5003511;28;20045;-54
2023/09/26 11:52:09;;;;;;;6.90;2.83;;;;;;;;;;4995726;28;20038;-56
2023/09/26 11:54:36;;;;;;;7.82;3.35;;;;;;;;;;4989344;28;20041;-54
2023/09/26 11:57:02;;;;;;;6.03;3.22;;;;;;;;;;4992109;28;20606;-55
2023/09/26 11:59:28;;;;;;;5.45;2.83;;;;;;;;;;4992437;28;20124;-55
2023/09/26 12:01:58;;;;;;;5.80;2.83;;;;;;;;;;4991837;28;20042;-53
2023/09/26 12:04:25;;;;;;;4.45;2.67;;;;;;;;;;4990743;28;20532;-51
2023/09/26 12:06:51;;;;;;;6.78;2.90;;;;;;;;;;4993453;28;20046;-52
2023/09/26 12:09:19;;;;;;;5.30;2.70;;;;;;;;;;4990677;28;20048;-53
2023/09/26 12:11:45;;;;;;;7.47;2.83;;;;;;;;;;4987778;28;20034;-53
2023/09/26 12:14:11;;;;;;;5.20;2.78;;;;;;;;;;5003733;28;20041;-54
2023/09/26 12:16:37;;;;;;;6.47;2.83;;;;;;;;;;5006109;28;20038;-52
2023/09/26 12:19:03;;;;;;;5.88;2.45;;;;;;;;;;5002718;28;20570;-55
2023/09/26 12:21:29;;;;;;;6.38;2.72;;;;;;;;;;5002266;28;20168;-53
2023/09/26 12:23:55;;;;;;;6.18;3.20;;;;;;;;;;5001495;28;20038;-53
2023/09/26 12:26:21;;;;;;;4.90;2.85;;;;;;;;;;5000323;28;20460;-52
2023/09/26 12:28:47;;;;;;;6.50;3.17;;;;;;;;;;5004692;28;20037;-53
2023/09/26 12:31:13;;;;;;;6.25;2.95;;;;;;;;;;5003062;28;20136;-54
2023/09/26 12:33:39;;;;;;;5.63;2.60;;;;;;;;;;5004724;28;20057;-54
2023/09/26 12:36:05;;;;;;;6.38;3.13;;;;;;;;;;5003056;28;20053;-55
2023/09/26 12:38:31;;;;;;;5.80;2.65;;;;;;;;;;5002618;28;20080;-54
2023/09/26 12:40:57;;;;;;;7.53;3.10;;;;;;;;;;5003012;28;20634;-49
2023/09/26 12:43:23;;;;;;;5.88;2.70;;;;;;;;;;5001696;28;20091;-52
2023/09/26 12:45:49;;;;;;;6.35;3.42;;;;;;;;;;4998310;28;20030;-52
2023/09/26 12:48:15;;;;;;;6.55;3.20;;;;;;;;;;5001569;28;20034;-52
2023/09/26 12:50:41;;;;;;;5.43;3.35;;;;;;;;;;5004619;28;20799;-52
2023/09/26 12:53:07;;;;;;;6.70;3.28;;;;;;;;;;5002761;28;20046;-52
2023/09/26 12:55:33;;;;;;;8.23;3.20;;;;;;;;;;5006889;28;20109;-51
2023/09/26 12:57:59;;;;;;;7.40;3.30;;;;;;;;;;5006338;28;20041;-53
2023/09/26 13:00:25;;;;;;;8.70;3.03;;;;;;;;;;5005391;28;20034;-49
2023/09/26 13:02:51;;;;;;;6.47;3.45;;;;;;;;;;5006255;28;20091;-51
2023/09/26 13:05:18;;;;;;;8.68;3.40;;;;;;;;;;5003792;28;20045;-52
2023/09/26 13:07:44;;;;;;;5.65;2.90;;;;;;;;;;5012996;28;20594;-51
2023/09/26 13:10:11;;;;;;;7.25;3.50;;;;;;;;;;5024765;28;20033;-50
2023/09/26 13:12:38;;;;;;;5.50;3.50;;;;;;;;;;5025765;28;20043;-52
2023/09/26 13:15:04;;;;;;;7.53;3.47;;;;;;;;;;5025291;28;20021;-51
2023/09/26 13:17:31;;;;;;;10.40;3.92;;;;;;;;;;5028366;28;20493;-53
2023/09/26 13:19:57;;;;;;;6.53;3.17;;;;;;;;;;5024949;28;20378;-53
2023/09/26 13:22:23;;;;;;;7.07;3.60;;;;;;;;;;5024508;28;20033;-54
2023/09/26 13:24:50;;;;;;;9.55;3.63;;;;;;;;;;5028187;28;20460;-56
2023/09/26 13:27:16;;;;;;;9.88;3.88;;;;;;;;;;5023298;28;20297;-54
2023/09/26 13:29:42;;;;;;;8.98;3.45;;;;;;;;;;5014237;28;20046;-54
2023/09/26 13:32:08;;;;;;;8.05;3.95;;;;;;;;;;5013060;28;20033;-53
2023/09/26 13:34:34;;;;;;;9.55;3.83;;;;;;;;;;5012681;28;20084;-56
2023/09/26 13:37:00;;;;;;;6.47;3.47;;;;;;;;;;5021250;28;20038;-55
2023/09/26 13:39:27;;;;;;;9.80;4.10;;;;;;;;;;5022301;28;20049;-55
2023/09/26 13:41:53;;;;;;;6.90;3.80;;;;;;;;;;5019437;28;20465;-55
2023/09/26 13:44:19;;;;;;;6.97;3.90;;;;;;;;;;5014808;28;20076;-53
2023/09/26 13:46:45;;;;;;;11.57;4.13;;;;;;;;;;5015386;28;20061;-56
2023/09/26 13:49:11;;;;;;;6.88;3.67;;;;;;;;;;5026177;28;20490;-54
2023/09/26 13:51:37;;;;;;;9.57;4.30;;;;;;;;;;5027038;28;20040;-55
2023/09/26 13:54:06;;;;;;;6.05;3.40;;;;;;;;;;5034282;28;20056;-55
2023/09/26 13:56:32;;;;;;;10.00;4.00;;;;;;;;;;5017014;28;20036;-54
2023/09/26 13:58:58;;;;;;;5.43;3.30;;;;;;;;;;5013611;28;20045;-54
2023/09/26 14:01:24;;;;;;;7.70;3.47;;;;;;;;;;5007421;28;20065;-55
2023/09/26 14:03:50;;;;;;;6.60;3.22;;;;;;;;;;5014844;28;20504;-54
2023/09/26 14:06:16;;;;;;;5.75;3.10;;;;;;;;;;5023642;28;20034;-55
2023/09/26 14:08:42;;;;;;;8.50;3.25;;;;;;;;;;5025760;28;20401;-54
2023/09/26 14:11:08;;;;;;;6.28;3.22;;;;;;;;;;5025114;28;20026;-55
2023/09/26 14:13:34;;;;;;;6.57;3.10;;;;;;;;;;5023591;28;20755;-55
2023/09/26 14:16:00;;;;;;;7.50;3.47;;;;;;;;;;5023688;28;20160;-56
2023/09/26 14:18:26;;;;;;;10.02;3.30;;;;;;;;;;5021764;28;20120;-54
2023/09/26 14:20:52;;;;;;;7.03;3.25;;;;;;;;;;5025641;28;20033;-53
2023/09/26 14:23:25;;;;;;;7.07;3.38;;;;;;;;;;5004367;28;20069;-56
2023/09/26 14:25:52;;;;;;;6.75;3.47;;;;;;;;;;5003954;28;20045;-53
2023/09/26 14:28:18;;;;;;;8.90;3.75;;;;;;;;;;5004248;28;20087;-55
2023/09/26 14:30:44;;;;;;;6.95;3.38;;;;;;;;;;5006282;28;20038;-54